In Rescue
 
Open Full Screen Window  High Contrast Mode
Wind Gusting 00 knots
06
April 19, 2021 9:35 PM EDT
Weather Information
Wind Direction
  250 °
Wind Speed
  06 kt (7 mph)
Wind Gust
  00 kt (0 mph)
Altimeter
29.87 in
Visibility
10 SM
Temperature
14° C
57° F
Dewpoint
02° C
36° F
Humidity
44%
1hr Rain Fall
00.00 in.
24hr Rain Fall
00.00 in.
Sky Condition
Broken @ 10,000 ft
Broken @ 8,000 ft
VFR

METAR KMRT 200135Z AUTO 25006KT 10SM BKN080 BKN100 14/02 A2987 RMK AO2 T01420023

FAA Disclaimer: The data displayed is for advisory purposes only and is not to be used for flight planning or operations.